Time;durP1;ratioP1;P1;durP2;ratioP2;P2;SDS_P1;SDS_P2;PMS_P1;PMS_P2;Temp;Humidity;BMP_temperature;BMP_pressure;BME280_temperature;BME280_humidity;BME280_pressure;Samples;Min_cycle;Max_cycle;Signal;HPM_P1;HPM_P2
2022/03/22 00:01:16;;;;;;;10.30;4.80;;;7.70;99.90;;;;;;5091998;28;20198;-74
2022/03/22 00:03:45;;;;;;;9.73;5.33;;;7.70;99.90;;;;;;5091931;28;20213;-74
2022/03/22 00:06:11;;;;;;;11.50;5.53;;;7.70;99.90;;;;;;5091978;28;20665;-74
2022/03/22 00:08:38;;;;;;;10.87;5.50;;;7.70;99.90;;;;;;5091549;28;20232;-74
2022/03/22 00:11:05;;;;;;;10.93;5.03;;;7.70;99.90;;;;;;5091893;28;20206;-74
2022/03/22 00:13:34;;;;;;;8.53;4.57;;;7.60;99.90;;;;;;5091273;28;20210;-74
2022/03/22 00:16:01;;;;;;;8.97;4.80;;;7.60;99.90;;;;;;5089841;28;20228;-74
2022/03/22 00:18:29;;;;;;;7.77;4.60;;;7.70;99.90;;;;;;5091556;28;20230;-74
2022/03/22 00:20:57;;;;;;;10.60;5.27;;;7.60;99.90;;;;;;5091778;28;20198;-74
2022/03/22 00:23:24;;;;;;;8.10;4.40;;;7.60;99.90;;;;;;5091494;28;20216;-74
2022/03/22 00:25:51;;;;;;;10.47;4.33;;;7.60;99.90;;;;;;5091418;28;20198;-74
2022/03/22 00:28:18;;;;;;;9.80;4.67;;;7.50;99.90;;;;;;5091840;28;20241;-74
2022/03/22 00:30:47;;;;;;;8.33;4.77;;;7.50;99.90;;;;;;5091768;28;20241;-74
2022/03/22 00:33:13;;;;;;;9.40;4.47;;;7.50;99.90;;;;;;5091488;28;20202;-74
2022/03/22 00:35:41;;;;;;;8.07;4.97;;;7.50;99.90;;;;;;5091619;28;20209;-74
2022/03/22 00:38:11;;;;;;;9.83;4.80;;;7.50;99.90;;;;;;5091713;28;20238;-74
2022/03/22 00:40:39;;;;;;;11.23;5.07;;;7.50;99.90;;;;;;5091756;28;20209;-74
2022/03/22 00:43:06;;;;;;;8.10;4.30;;;7.40;99.90;;;;;;5091065;28;20293;-74
2022/03/22 00:45:34;;;;;;;11.70;4.77;;;7.40;99.90;;;;;;5091185;28;20297;-74
2022/03/22 00:48:04;;;;;;;11.47;4.73;;;7.40;99.90;;;;;;5090896;28;20230;-74
2022/03/22 00:50:33;;;;;;;10.13;4.73;;;7.50;99.90;;;;;;5091008;28;20209;-74
2022/03/22 00:53:01;;;;;;;8.60;4.70;;;7.50;99.90;;;;;;5091457;28;20241;-74
2022/03/22 00:55:28;;;;;;;10.33;4.77;;;7.40;99.90;;;;;;5091585;28;20213;-74
2022/03/22 00:57:56;;;;;;;8.47;4.30;;;7.40;99.90;;;;;;5091359;28;20242;-74
2022/03/22 01:00:25;;;;;;;9.70;4.30;;;7.40;99.90;;;;;;5091118;28;20203;-74
2022/03/22 01:02:53;;;;;;;11.20;5.30;;;7.40;99.90;;;;;;5091458;28;20550;-74
2022/03/22 01:05:23;;;;;;;8.00;4.60;;;7.30;99.90;;;;;;5091044;28;20214;-73
2022/03/22 01:07:52;;;;;;;11.60;4.77;;;7.30;99.90;;;;;;5091155;28;20223;-74
2022/03/22 01:10:22;;;;;;;7.20;3.90;;;7.20;99.90;;;;;;5091248;28;20199;-74
2022/03/22 01:12:49;;;;;;;10.80;4.83;;;7.20;99.90;;;;;;5091034;28;20695;-74
2022/03/22 01:15:18;;;;;;;10.33;3.90;;;7.20;99.90;;;;;;5091169;28;20202;-74
2022/03/22 01:17:46;;;;;;;12.80;4.17;;;7.20;99.90;;;;;;5090515;28;20238;-74
2022/03/22 01:20:14;;;;;;;11.13;4.27;;;7.20;99.90;;;;;;5091793;28;20205;-74
2022/03/22 01:22:44;;;;;;;7.60;4.53;;;7.10;99.90;;;;;;5095052;28;20209;-74
2022/03/22 01:25:14;;;;;;;9.17;4.20;;;7.10;99.90;;;;;;5094622;28;20203;-74
2022/03/22 01:27:42;;;;;;;7.63;4.33;;;7.10;99.90;;;;;;5094842;28;20223;-74
2022/03/22 01:30:13;;;;;;;7.50;4.17;;;7.10;99.90;;;;;;5094821;28;20210;-74
2022/03/22 01:32:40;;;;;;;7.70;3.57;;;7.10;99.90;;;;;;5094366;28;20234;-74
2022/03/22 01:35:10;;;;;;;8.50;4.20;;;7.10;99.90;;;;;;5095054;28;20210;-74
2022/03/22 01:37:37;;;;;;;9.13;4.40;;;7.10;99.90;;;;;;5094273;28;20766;-74
2022/03/22 01:40:07;;;;;;;7.33;4.33;;;7.10;99.90;;;;;;5094509;28;20203;-74
2022/03/22 01:42:35;;;;;;;9.13;4.37;;;7.10;99.90;;;;;;5093999;28;20202;-74
2022/03/22 01:45:03;;;;;;;8.93;4.40;;;7.00;99.90;;;;;;5094164;28;20202;-74
2022/03/22 01:47:30;;;;;;;8.53;4.30;;;7.00;99.90;;;;;;5094025;28;20588;-74
2022/03/22 01:49:57;;;;;;;7.33;4.17;;;7.10;99.90;;;;;;5093668;28;20203;-74
2022/03/22 01:52:26;;;;;;;8.70;4.80;;;7.20;99.90;;;;;;5094556;28;20228;-74
2022/03/22 01:54:55;;;;;;;9.07;4.50;;;7.20;99.90;;;;;;5094071;28;20203;-74
2022/03/22 01:57:25;;;;;;;11.20;4.27;;;7.20;99.90;;;;;;5093566;28;20578;-73
2022/03/22 01:59:53;;;;;;;8.60;4.27;;;7.20;99.90;;;;;;5093725;28;20857;-73
2022/03/22 02:07:50;;;;;;;8.67;4.70;;;7.30;99.90;;;;;;5094589;28;20411;-73
2022/03/22 02:10:17;;;;;;;8.63;4.17;;;7.30;99.90;;;;;;5094952;28;20213;-73
2022/03/22 02:12:46;;;;;;;8.50;4.43;;;7.30;99.90;;;;;;5094943;28;20638;-73
2022/03/22 02:15:14;;;;;;;8.73;4.20;;;7.30;99.90;;;;;;5094989;28;20230;-73
2022/03/22 02:17:42;;;;;;;10.17;4.23;;;7.30;99.90;;;;;;5094394;28;20238;-73
2022/03/22 02:20:10;;;;;;;8.90;4.27;;;7.30;99.90;;;;;;5093810;28;20648;-73
2022/03/22 02:22:44;;;;;;;7.80;3.93;;;7.30;99.90;;;;;;5094467;28;20203;-73
2022/03/22 02:25:15;;;;;;;8.47;3.90;;;7.30;99.90;;;;;;5093995;28;20206;-73
2022/03/22 02:27:43;;;;;;;6.37;3.57;;;7.30;99.90;;;;;;5093507;28;20632;-74
2022/03/22 02:30:11;;;;;;;10.13;4.27;;;7.30;99.90;;;;;;5093564;28;20217;-74
2022/03/22 02:32:38;;;;;;;8.67;3.93;;;7.30;99.90;;;;;;5092985;28;20202;-74
2022/03/22 02:35:06;;;;;;;7.27;3.67;;;7.30;99.90;;;;;;5093862;28;20202;-74
2022/03/22 02:37:33;;;;;;;6.63;3.67;;;7.30;99.90;;;;;;5093816;28;20234;-74
2022/03/22 02:40:00;;;;;;;9.10;4.03;;;7.20;99.90;;;;;;5094271;28;20202;-74
2022/03/22 02:42:29;;;;;;;6.80;4.03;;;7.30;99.90;;;;;;5093329;28;20207;-74
2022/03/22 02:44:56;;;;;;;6.37;3.73;;;7.30;99.90;;;;;;5093769;28;20309;-74
2022/03/22 02:47:23;;;;;;;8.23;4.30;;;7.30;99.90;;;;;;5093974;28;20227;-74
2022/03/22 02:49:50;;;;;;;7.90;3.93;;;7.30;99.90;;;;;;5092986;28;20197;-74
2022/03/22 02:52:17;;;;;;;7.47;4.03;;;7.40;99.90;;;;;;5093963;28;20641;-74
2022/03/22 02:54:44;;;;;;;7.77;3.70;;;7.40;99.90;;;;;;5094095;28;20206;-74
2022/03/22 02:57:10;;;;;;;8.43;4.20;;;7.50;99.90;;;;;;5093384;28;20232;-74
2022/03/22 02:59:39;;;;;;;8.37;4.10;;;7.40;99.90;;;;;;5094191;28;20202;-73
2022/03/22 03:02:05;;;;;;;7.93;3.70;;;7.40;99.90;;;;;;5093666;28;20299;-74
2022/03/22 03:04:32;;;;;;;6.53;3.47;;;7.40;99.90;;;;;;5093133;28;20211;-74
2022/03/22 03:06:59;;;;;;;8.10;3.97;;;7.30;99.90;;;;;;5093499;28;20246;-74
2022/03/22 03:09:26;;;;;;;6.93;4.00;;;7.30;99.90;;;;;;5093582;28;20198;-74
2022/03/22 03:11:52;;;;;;;7.33;3.93;;;7.30;99.90;;;;;;5093257;28;20209;-74
2022/03/22 03:17:05;;;;;;;6.43;3.77;;;7.30;99.90;;;;;;5082789;28;20226;-74
2022/03/22 03:19:31;;;;;;;6.57;3.20;;;7.30;99.90;;;;;;5093700;28;20202;-74
2022/03/22 03:21:58;;;;;;;8.00;3.43;;;7.30;99.90;;;;;;5093098;28;20646;-74
2022/03/22 03:24:25;;;;;;;6.67;3.47;;;7.40;99.90;;;;;;5093396;28;20215;-74
2022/03/22 03:26:52;;;;;;;6.13;3.43;;;7.40;99.90;;;;;;5093061;28;20227;-74
2022/03/22 03:29:18;;;;;;;6.57;3.50;;;7.50;99.90;;;;;;5093329;28;20217;-74
2022/03/22 03:31:45;;;;;;;5.90;3.20;;;7.60;99.90;;;;;;5092545;28;20209;-74
2022/03/22 03:34:13;;;;;;;7.23;3.60;;;7.60;99.90;;;;;;5092076;28;20213;-74
2022/03/22 03:36:41;;;;;;;7.20;3.70;;;7.60;99.90;;;;;;5092954;28;20293;-74
2022/03/22 03:39:08;;;;;;;7.03;3.67;;;7.60;99.90;;;;;;5092638;28;20305;-74
2022/03/22 03:47:05;;;;;;;5.57;2.80;;;7.70;99.90;;;;;;5092299;28;20287;-74
2022/03/22 03:49:34;;;;;;;5.33;3.10;;;7.80;99.90;;;;;;5092775;28;20202;-74
2022/03/22 03:52:01;;;;;;;8.23;3.40;;;7.70;99.90;;;;;;5092232;28;20277;-74
2022/03/22 03:54:29;;;;;;;6.10;3.43;;;7.80;99.90;;;;;;5092659;28;20199;-74
2022/03/22 03:56:56;;;;;;;8.70;3.40;;;7.80;99.90;;;;;;5092451;28;20228;-74
2022/03/22 03:59:23;;;;;;;5.93;3.20;;;7.80;99.90;;;;;;5092929;28;20217;-74
2022/03/22 04:01:49;;;;;;;6.33;3.50;;;7.80;99.90;;;;;;5092484;28;20214;-74
2022/03/22 04:04:16;;;;;;;5.50;3.07;;;7.90;99.90;;;;;;5092784;28;20210;-74
2022/03/22 04:06:45;;;;;;;8.73;3.40;;;7.90;99.90;;;;;;5092496;28;20202;-73
2022/03/22 04:09:12;;;;;;;6.33;2.90;;;7.90;99.90;;;;;;5092789;28;20206;-74
2022/03/22 04:11:39;;;;;;;5.50;3.07;;;7.90;99.90;;;;;;5092379;28;20207;-74
2022/03/22 04:14:06;;;;;;;6.43;2.90;;;8.00;99.90;;;;;;5092362;28;20218;-74
2022/03/22 04:16:33;;;;;;;7.97;3.10;;;8.00;99.90;;;;;;5092585;28;20217;-74
2022/03/22 04:19:01;;;;;;;5.83;3.10;;;8.10;99.90;;;;;;5092615;28;20234;-74
2022/03/22 04:21:27;;;;;;;9.37;3.40;;;8.20;99.90;;;;;;5091887;28;20561;-74
2022/03/22 04:23:56;;;;;;;9.67;3.90;;;8.20;99.90;;;;;;5092503;28;20297;-74
2022/03/22 04:26:22;;;;;;;6.70;3.00;;;8.10;99.90;;;;;;5086465;28;20203;-74
2022/03/22 04:34:32;;;;;;;7.00;3.10;;;8.30;99.90;;;;;;5045840;28;20246;-74
2022/03/22 04:37:00;;;;;;;5.87;3.20;;;8.40;99.90;;;;;;5048804;28;20587;-74
2022/03/22 04:39:31;;;;;;;9.13;3.17;;;8.40;99.90;;;;;;5068598;28;20202;-74
2022/03/22 04:41:59;;;;;;;6.43;3.10;;;8.40;99.90;;;;;;5092614;28;20203;-73
2022/03/22 04:44:26;;;;;;;6.07;3.27;;;8.50;99.90;;;;;;5092116;28;20657;-74
2022/03/22 04:46:53;;;;;;;6.20;3.07;;;8.50;99.90;;;;;;5091659;28;20708;-74
2022/03/22 04:49:20;;;;;;;6.57;3.50;;;8.50;99.90;;;;;;5092329;28;20210;-74
2022/03/22 04:57:17;;;;;;;8.73;3.60;;;8.60;99.90;;;;;;5096037;28;20619;-74
2022/03/22 04:59:44;;;;;;;6.83;3.40;;;8.50;99.90;;;;;;5096211;28;20198;-74
2022/03/22 05:02:11;;;;;;;6.77;2.90;;;8.50;99.90;;;;;;5096519;28;20206;-74
2022/03/22 05:04:38;;;;;;;5.73;3.63;;;8.40;99.90;;;;;;5096016;28;20322;-74
2022/03/22 05:07:06;;;;;;;5.87;3.20;;;8.30;99.90;;;;;;5095708;28;20293;-74
2022/03/22 05:09:34;;;;;;;5.43;3.17;;;8.30;99.90;;;;;;5095670;28;20202;-74
2022/03/22 05:12:02;;;;;;;6.37;2.83;;;8.20;99.90;;;;;;5095557;28;20232;-74
2022/03/22 05:14:29;;;;;;;8.33;3.77;;;8.10;99.90;;;;;;5095271;28;20201;-74
2022/03/22 05:16:58;;;;;;;8.30;3.33;;;8.00;99.90;;;;;;5095476;28;20240;-74
2022/03/22 05:19:25;;;;;;;6.90;3.30;;;7.90;99.90;;;;;;5095746;28;20237;-74
2022/03/22 05:21:52;;;;;;;6.47;3.30;;;7.90;99.90;;;;;;5095951;28;20217;-74
2022/03/22 05:24:19;;;;;;;6.50;3.47;;;7.80;99.90;;;;;;5095322;28;20198;-74
2022/03/22 05:26:47;;;;;;;7.10;3.30;;;7.70;99.90;;;;;;5095374;28;20202;-74
2022/03/22 05:29:14;;;;;;;6.40;3.37;;;7.50;99.90;;;;;;5095352;28;20564;-74
2022/03/22 05:31:41;;;;;;;6.33;3.40;;;7.50;99.90;;;;;;5095751;28;20221;-74
2022/03/22 05:34:08;;;;;;;6.77;3.83;;;7.40;99.90;;;;;;5082689;28;20668;-74
2022/03/22 05:36:35;;;;;;;6.57;3.43;;;7.40;99.90;;;;;;5094205;28;20676;-74
2022/03/22 05:39:01;;;;;;;5.63;3.10;;;7.30;99.90;;;;;;5095221;28;20237;-74
2022/03/22 05:41:28;;;;;;;7.53;3.67;;;7.30;99.90;;;;;;5095148;28;20202;-74
2022/03/22 05:43:56;;;;;;;9.07;3.83;;;7.30;99.90;;;;;;5094876;28;20202;-74
2022/03/22 05:46:23;;;;;;;7.47;3.50;;;7.40;99.90;;;;;;5094751;28;20681;-74
2022/03/22 05:48:50;;;;;;;7.23;3.80;;;7.50;99.90;;;;;;5095178;28;20231;-74
2022/03/22 05:51:17;;;;;;;5.77;3.40;;;7.80;99.90;;;;;;5096716;28;20206;-74
2022/03/22 05:53:45;;;;;;;7.30;3.50;;;7.80;99.90;;;;;;5094434;28;20657;-74
2022/03/22 05:56:12;;;;;;;7.83;3.27;;;7.90;99.90;;;;;;5103970;28;20613;-74
2022/03/22 05:58:39;;;;;;;10.17;3.87;;;8.00;99.90;;;;;;5114856;28;20240;-74
2022/03/22 06:01:07;;;;;;;7.80;3.70;;;8.00;99.90;;;;;;5115287;28;20288;-74
2022/03/22 06:03:35;;;;;;;6.43;3.33;;;8.10;99.90;;;;;;5115489;27;20202;-74
2022/03/22 06:06:02;;;;;;;6.30;3.50;;;8.20;99.90;;;;;;5114919;28;20202;-74
2022/03/22 06:08:29;;;;;;;6.90;3.17;;;8.20;99.90;;;;;;5107227;27;20577;-74
2022/03/22 06:10:56;;;;;;;7.20;3.40;;;8.10;99.90;;;;;;5094239;28;20210;-74
2022/03/22 06:13:23;;;;;;;6.27;3.00;;;8.10;99.90;;;;;;5094239;28;20241;-74
2022/03/22 06:15:52;;;;;;;5.67;3.17;;;7.90;99.90;;;;;;5094283;28;20284;-74
2022/03/22 06:18:20;;;;;;;7.13;3.40;;;7.90;99.90;;;;;;5094847;28;20241;-74
2022/03/22 06:20:47;;;;;;;6.13;3.00;;;8.00;99.90;;;;;;5094425;28;20226;-74
2022/03/22 06:23:15;;;;;;;11.33;4.40;;;8.20;99.90;;;;;;5094382;28;20206;-74
2022/03/22 06:25:42;;;;;;;7.77;3.93;;;8.60;99.90;;;;;;5094159;28;20210;-74
2022/03/22 06:28:10;;;;;;;7.00;3.77;;;9.00;99.90;;;;;;5093796;28;20228;-74
2022/03/22 06:30:38;;;;;;;9.87;3.73;;;9.60;99.90;;;;;;5094351;28;20297;-74
2022/03/22 06:33:10;;;;;;;10.60;4.37;;;10.10;99.90;;;;;;5077819;28;20566;-74
2022/03/22 06:35:38;;;;;;;8.20;3.90;;;10.50;99.90;;;;;;5074286;28;20199;-74
2022/03/22 06:38:05;;;;;;;6.73;3.77;;;10.90;99.90;;;;;;5074200;28;20242;-74
2022/03/22 06:40:34;;;;;;;6.07;3.47;;;11.20;99.90;;;;;;5073986;28;20692;-74
2022/03/22 06:43:02;;;;;;;7.70;3.73;;;11.70;99.90;;;;;;5073691;28;20203;-74
2022/03/22 06:45:29;;;;;;;7.23;3.70;;;12.10;99.90;;;;;;5073557;28;20670;-74
2022/03/22 06:47:56;;;;;;;8.53;3.97;;;12.50;99.90;;;;;;5073534;28;20223;-74
2022/03/22 06:50:24;;;;;;;9.70;4.07;;;12.80;99.90;;;;;;5073883;28;20199;-75
2022/03/22 06:52:53;;;;;;;5.70;3.60;;;12.90;99.90;;;;;;5080111;28;20192;-74
2022/03/22 06:55:22;;;;;;;7.33;3.70;;;13.20;99.90;;;;;;5082586;28;20211;-73
2022/03/22 06:57:51;;;;;;;7.47;3.77;;;13.70;99.90;;;;;;5087349;28;20267;-74
2022/03/22 07:00:19;;;;;;;7.67;3.97;;;14.20;99.90;;;;;;5093084;28;20210;-74
2022/03/22 07:02:48;;;;;;;7.63;3.87;;;14.70;99.90;;;;;;5096231;28;20290;-73
2022/03/22 07:05:15;;;;;;;12.43;9.10;;;15.20;99.90;;;;;;5092641;28;20205;-74
2022/03/22 07:07:42;;;;;;;9.93;5.73;;;15.40;99.90;;;;;;5093569;28;20715;-73
2022/03/22 07:10:13;;;;;;;8.03;4.07;;;15.50;99.90;;;;;;5093204;28;20213;-74
2022/03/22 07:12:51;;;;;;;9.43;4.13;;;15.90;99.90;;;;;;5093175;28;20585;-74
2022/03/22 07:15:20;;;;;;;8.47;4.30;;;16.40;99.30;;;;;;5093403;28;20210;-74
2022/03/22 07:17:46;;;;;;;8.37;4.37;;;16.90;98.20;;;;;;5091478;28;20268;-74
2022/03/22 07:20:14;;;;;;;8.23;4.40;;;17.30;97.70;;;;;;5093260;28;20234;-73
2022/03/22 07:22:43;;;;;;;9.35;4.85;;;17.50;96.60;;;;;;5080501;28;20259;-73
2022/03/22 07:25:11;;;;;;;7.72;4.25;;;17.90;95.80;;;;;;5081327;28;20230;-74
2022/03/22 07:27:38;;;;;;;8.00;4.18;;;18.20;95.40;;;;;;5085874;28;20726;-74
2022/03/22 07:30:06;;;;;;;10.88;4.90;;;18.50;95.10;;;;;;5072745;28;20298;-74
2022/03/22 07:32:33;;;;;;;11.13;5.65;;;18.40;94.50;;;;;;5072844;28;20673;-74
2022/03/22 07:35:00;;;;;;;8.85;4.82;;;18.30;94.00;;;;;;5082568;28;20198;-74
2022/03/22 07:37:29;;;;;;;9.15;4.80;;;18.40;93.90;;;;;;5093397;28;20226;-74
2022/03/22 07:39:57;;;;;;;10.07;4.97;;;18.30;93.60;;;;;;5092690;28;20701;-74
2022/03/22 07:42:27;;;;;;;10.60;4.93;;;18.40;93.40;;;;;;5092990;28;20210;-74
2022/03/22 07:44:56;;;;;;;11.45;4.80;;;18.50;93.50;;;;;;5089643;28;20282;-74
2022/03/22 07:47:23;;;;;;;10.35;5.00;;;18.10;93.60;;;;;;5089178;28;20214;-73
2022/03/22 07:53:05;;;;;;;8.57;4.60;;;18.10;93.40;;;;;;5070519;28;20203;-74
2022/03/22 07:55:34;;;;;;;8.63;4.85;;;18.00;93.70;;;;;;5066002;28;20692;-74
2022/03/22 07:58:03;;;;;;;12.05;4.57;;;17.90;93.10;;;;;;5071876;28;20245;-75
2022/03/22 08:00:29;;;;;;;8.75;4.50;;;18.10;93.00;;;;;;5091862;28;20561;-74
2022/03/22 08:02:57;;;;;;;8.15;4.32;;;18.20;92.30;;;;;;5092939;28;20232;-74
2022/03/22 08:05:25;;;;;;;9.15;4.32;;;18.10;92.90;;;;;;5092506;28;20663;-74
2022/03/22 08:07:53;;;;;;;12.52;5.10;;;18.00;92.30;;;;;;5088020;28;20305;-74
2022/03/22 08:10:20;;;;;;;7.93;4.72;;;17.90;93.10;;;;;;5072182;28;20676;-74
2022/03/22 08:12:47;;;;;;;10.45;5.22;;;18.00;92.50;;;;;;5078009;28;20763;-74
2022/03/22 08:15:17;;;;;;;13.48;5.55;;;18.30;93.20;;;;;;5083426;28;20215;-74
2022/03/22 08:17:45;;;;;;;9.55;5.00;;;18.60;93.00;;;;;;5073930;28;20310;-74
2022/03/22 08:20:13;;;;;;;7.68;4.53;;;19.00;92.70;;;;;;5072347;28;20231;-74
2022/03/22 08:22:50;;;;;;;9.20;4.50;;;19.40;91.40;;;;;;5072152;28;20673;-74
2022/03/22 08:25:18;;;;;;;12.40;5.13;;;19.40;91.80;;;;;;5077405;28;20206;-74
2022/03/22 08:27:45;;;;;;;9.13;4.95;;;19.90;91.40;;;;;;5091534;28;20576;-74
2022/03/22 08:30:13;;;;;;;9.00;4.63;;;19.80;90.10;;;;;;5094896;28;20206;-74
2022/03/22 08:32:42;;;;;;;9.02;4.93;;;19.70;90.20;;;;;;5095930;28;20661;-74
2022/03/22 08:35:10;;;;;;;8.48;5.35;;;20.10;90.10;;;;;;5096458;28;20624;-74
2022/03/22 08:37:36;;;;;;;12.10;4.72;;;20.00;88.40;;;;;;5096797;28;20253;-74
2022/03/22 08:40:05;;;;;;;9.15;5.30;;;19.80;86.60;;;;;;5096484;28;20566;-74
2022/03/22 08:42:32;;;;;;;10.25;5.35;;;19.70;89.30;;;;;;5095717;28;20202;-74
2022/03/22 08:44:59;;;;;;;11.27;4.60;;;20.00;90.00;;;;;;5093192;28;20649;-74
2022/03/22 08:47:27;;;;;;;8.88;4.50;;;19.80;88.70;;;;;;5076274;28;20227;-73
2022/03/22 08:49:55;;;;;;;8.90;5.13;;;19.30;87.40;;;;;;5095578;28;20203;-72
2022/03/22 08:52:22;;;;;;;9.07;5.10;;;19.10;88.60;;;;;;5095386;28;20198;-73
2022/03/22 08:54:51;;;;;;;9.13;4.80;;;19.10;88.20;;;;;;5096044;28;20289;-73
2022/03/22 08:57:18;;;;;;;11.40;4.55;;;19.50;89.30;;;;;;5089986;28;20222;-73
2022/03/22 08:59:45;;;;;;;10.18;5.03;;;19.80;87.40;;;;;;5095613;28;20234;-73
2022/03/22 09:02:12;;;;;;;6.63;3.97;;;19.60;84.70;;;;;;5096098;28;20687;-73
2022/03/22 09:07:24;;;;;;;10.52;4.53;;;19.90;85.60;;;;;;5077683;28;20269;-74
2022/03/22 09:09:51;;;;;;;9.15;4.80;;;19.80;85.10;;;;;;5077797;28;20538;-73
2022/03/22 09:12:18;;;;;;;12.32;4.75;;;19.90;84.10;;;;;;5077014;28;20200;-72
2022/03/22 09:14:45;;;;;;;9.65;4.65;;;19.80;85.40;;;;;;5084223;28;20686;-74
2022/03/22 09:17:13;;;;;;;8.45;5.00;;;20.10;86.50;;;;;;5084839;28;20215;-72
2022/03/22 09:19:39;;;;;;;10.93;5.10;;;20.30;84.20;;;;;;5085380;28;20234;-73
2022/03/22 09:22:07;;;;;;;7.80;4.45;;;19.70;84.20;;;;;;5074973;28;20214;-73
2022/03/22 09:24:35;;;;;;;9.23;5.10;;;19.90;85.00;;;;;;5075733;28;20207;-74
2022/03/22 09:27:03;;;;;;;11.50;4.85;;;19.50;85.80;;;;;;5087885;28;20219;-74
2022/03/22 09:29:29;;;;;;;9.02;4.65;;;19.30;85.70;;;;;;5088630;28;20206;-74
2022/03/22 09:31:56;;;;;;;9.30;5.28;;;19.20;84.50;;;;;;5084441;28;20231;-74
2022/03/22 09:34:24;;;;;;;11.32;4.45;;;19.10;84.90;;;;;;5084364;28;20201;-71
2022/03/22 09:36:51;;;;;;;11.13;5.10;;;19.00;86.70;;;;;;5083808;28;20254;-75
2022/03/22 09:39:19;;;;;;;9.98;4.82;;;18.80;86.70;;;;;;5083182;28;20222;-73
2022/03/22 09:41:49;;;;;;;6.57;4.13;;;18.60;86.70;;;;;;5082613;28;20195;-73
2022/03/22 09:44:19;;;;;;;8.95;4.75;;;18.30;87.60;;;;;;5083341;28;20210;-72
2022/03/22 09:46:48;;;;;;;11.15;5.50;;;18.20;86.60;;;;;;5081979;28;20207;-73
2022/03/22 09:49:15;;;;;;;9.43;5.03;;;18.30;87.20;;;;;;5079609;28;20253;-73
2022/03/22 09:51:46;;;;;;;9.50;4.88;;;18.50;87.70;;;;;;5095563;28;20210;-73
2022/03/22 09:54:13;;;;;;;10.63;5.10;;;18.00;86.50;;;;;;5095161;28;20199;-74
2022/03/22 09:56:40;;;;;;;11.13;5.17;;;17.90;89.30;;;;;;5094240;28;20233;-76
2022/03/22 09:59:08;;;;;;;11.67;4.67;;;18.10;88.90;;;;;;5088980;28;20226;-76
2022/03/22 10:01:36;;;;;;;9.23;4.17;;;18.30;87.60;;;;;;5091691;28;20755;-75
2022/03/22 10:04:04;;;;;;;14.73;5.30;;;18.50;86.80;;;;;;5092301;28;20697;-74
2022/03/22 10:06:32;;;;;;;12.90;5.57;;;18.60;86.40;;;;;;5091924;28;20194;-76
2022/03/22 10:08:59;;;;;;;11.07;4.93;;;18.30;87.80;;;;;;5090601;28;20209;-75
2022/03/22 10:11:35;;;;;;;12.70;5.43;;;18.20;87.20;;;;;;5089789;28;20203;-75
2022/03/22 10:14:03;;;;;;;10.13;5.53;;;18.40;87.20;;;;;;5076841;28;20226;-74
2022/03/22 10:16:31;;;;;;;10.90;4.97;;;18.40;86.20;;;;;;5078231;28;20203;-74
2022/03/22 10:18:58;;;;;;;15.85;6.38;;;18.50;87.30;;;;;;5089257;28;20210;-70
2022/03/22 10:21:24;;;;;;;9.93;5.03;;;18.40;87.50;;;;;;5080767;28;20195;-74
2022/03/22 10:23:53;;;;;;;11.27;5.10;;;18.40;86.30;;;;;;5086715;28;20213;-70
2022/03/22 10:26:20;;;;;;;9.17;4.90;;;18.40;86.30;;;;;;5091267;28;20209;-73
2022/03/22 10:28:51;;;;;;;10.07;4.53;;;18.50;86.30;;;;;;5086937;28;20297;-75
2022/03/22 10:31:19;;;;;;;9.13;5.30;;;18.50;85.20;;;;;;5080361;28;20190;-70
2022/03/22 10:33:51;;;;;;;9.45;4.90;;;18.50;85.10;;;;;;5092356;28;20645;-71
2022/03/22 10:36:21;;;;;;;11.73;4.03;;;18.60;84.30;;;;;;5092174;28;20198;-71
2022/03/22 10:38:55;;;;;;;11.90;4.72;;;18.80;82.00;;;;;;5088691;28;20219;-74
2022/03/22 10:41:26;;;;;;;10.23;5.00;;;19.10;84.40;;;;;;5093540;28;20206;-72
2022/03/22 10:44:07;;;;;;;10.65;5.38;;;19.00;88.10;;;;;;5092064;28;20210;-73
2022/03/22 10:46:36;;;;;;;14.77;6.00;;;19.00;87.60;;;;;;5094454;28;20210;-75
2022/03/22 10:49:07;;;;;;;12.68;5.20;;;19.10;89.20;;;;;;5094096;28;20203;-73
2022/03/22 10:51:35;;;;;;;12.43;4.95;;;18.90;88.60;;;;;;5092578;28;20700;-74
2022/03/22 10:54:03;;;;;;;9.95;5.40;;;18.80;89.00;;;;;;5091195;28;20235;-73
2022/03/22 10:56:30;;;;;;;10.15;5.00;;;18.90;88.50;;;;;;5091478;28;20205;-74
2022/03/22 10:58:59;;;;;;;10.60;5.53;;;19.10;87.90;;;;;;5085598;28;20209;-75
2022/03/22 11:01:26;;;;;;;10.02;4.65;;;19.00;88.60;;;;;;5093243;28;20722;-71
2022/03/22 11:03:57;;;;;;;8.65;4.70;;;18.90;88.90;;;;;;5085490;28;20202;-74
2022/03/22 11:06:30;;;;;;;10.07;5.07;;;18.90;87.50;;;;;;5080590;28;20199;-73
2022/03/22 11:08:58;;;;;;;11.40;5.15;;;19.10;88.30;;;;;;5080181;28;20203;-74
2022/03/22 11:11:25;;;;;;;10.10;5.43;;;19.20;87.40;;;;;;5091698;28;20199;-75
2022/03/22 11:13:52;;;;;;;11.32;5.05;;;19.20;86.80;;;;;;5091312;28;20553;-73
2022/03/22 11:16:20;;;;;;;9.77;5.20;;;19.20;86.50;;;;;;5084318;28;20206;-72
2022/03/22 11:18:49;;;;;;;10.10;4.78;;;19.10;87.40;;;;;;5081179;28;20223;-71
2022/03/22 11:21:19;;;;;;;10.60;4.43;;;19.20;86.50;;;;;;5084707;28;20704;-71
2022/03/22 11:23:49;;;;;;;10.70;4.45;;;19.20;86.00;;;;;;5091270;28;20301;-74
2022/03/22 11:26:18;;;;;;;10.07;4.30;;;19.20;86.30;;;;;;5091376;28;20342;-74
2022/03/22 11:28:48;;;;;;;12.68;5.20;;;19.20;84.80;;;;;;5091027;28;20701;-73
2022/03/22 11:31:18;;;;;;;11.70;5.13;;;19.10;84.30;;;;;;5082214;28;20207;-74
2022/03/22 11:36:40;;;;;;;8.53;4.10;;;19.10;84.10;;;;;;5086367;28;20200;-74
2022/03/22 11:39:09;;;;;;;9.00;4.93;;;19.20;82.70;;;;;;5080303;28;20202;-72
2022/03/22 11:44:40;;;;;;;12.30;5.72;;;19.20;85.60;;;;;;5063861;28;20546;-73
2022/03/22 11:47:09;;;;;;;11.43;4.55;;;19.10;85.40;;;;;;5062456;28;20218;-71
2022/03/22 11:49:50;;;;;;;12.02;5.45;;;19.30;84.60;;;;;;5074907;28;20221;-69
2022/03/22 11:52:18;;;;;;;13.30;4.83;;;19.40;84.10;;;;;;5092388;28;20198;-69
2022/03/22 11:54:57;;;;;;;11.23;5.20;;;19.60;84.60;;;;;;5092547;28;20199;-69
2022/03/22 11:57:25;;;;;;;9.00;4.67;;;19.60;83.10;;;;;;5092680;28;20244;-70
2022/03/22 11:59:52;;;;;;;9.02;4.32;;;19.60;81.90;;;;;;5092563;28;20240;-70
2022/03/22 12:02:22;;;;;;;8.97;4.90;;;19.30;81.50;;;;;;5091184;28;20718;-70
2022/03/22 12:04:55;;;;;;;9.80;4.53;;;19.40;82.70;;;;;;5092328;28;20206;-71
2022/03/22 12:07:27;;;;;;;10.68;4.05;;;19.40;81.90;;;;;;5088879;28;20711;-73
2022/03/22 12:10:06;;;;;;;8.95;4.00;;;19.40;82.10;;;;;;5092205;28;20730;-71
2022/03/22 12:12:34;;;;;;;8.02;4.28;;;19.30;81.50;;;;;;5092342;28;20213;-73
2022/03/22 12:15:04;;;;;;;7.90;4.25;;;19.30;82.00;;;;;;5092453;28;20294;-71
2022/03/22 12:17:31;;;;;;;10.45;4.35;;;19.50;82.70;;;;;;5092197;28;20229;-70
2022/03/22 12:20:04;;;;;;;8.50;5.20;;;19.50;84.50;;;;;;5092135;28;20233;-72
2022/03/22 12:22:31;;;;;;;6.53;3.35;;;19.60;85.60;;;;;;5092232;28;20206;-69
2022/03/22 12:25:00;;;;;;;5.63;3.28;;;19.80;82.00;;;;;;5091908;28;20195;-70
2022/03/22 12:27:27;;;;;;;5.40;3.13;;;19.60;80.60;;;;;;5092527;28;20226;-72
2022/03/22 12:29:55;;;;;;;7.68;3.40;;;19.50;80.70;;;;;;5092161;28;20210;-69
2022/03/22 12:32:26;;;;;;;5.25;3.17;;;19.50;80.90;;;;;;5091802;28;20202;-72
2022/03/22 12:34:53;;;;;;;7.07;3.53;;;19.70;80.80;;;;;;5088159;28;20214;-74
2022/03/22 12:37:20;;;;;;;9.43;4.45;;;19.90;80.70;;;;;;5090567;28;20275;-75
2022/03/22 12:39:48;;;;;;;10.70;3.70;;;20.00;81.70;;;;;;5091339;28;20202;-74
2022/03/22 12:42:18;;;;;;;10.10;4.88;;;19.50;81.50;;;;;;5089726;28;20208;-75
2022/03/22 12:44:46;;;;;;;8.50;4.43;;;19.30;83.50;;;;;;5091255;28;20206;-75
2022/03/22 12:47:13;;;;;;;10.02;4.75;;;19.30;82.90;;;;;;5092265;28;20222;-73
2022/03/22 12:49:40;;;;;;;10.88;4.88;;;19.40;82.30;;;;;;5091042;28;20208;-73
2022/03/22 12:52:09;;;;;;;16.75;5.40;;;19.50;82.70;;;;;;5090841;28;20210;-74
2022/03/22 12:54:37;;;;;;;10.70;4.82;;;19.50;83.00;;;;;;5077658;28;20215;-72
2022/03/22 12:57:08;;;;;;;10.48;4.72;;;19.60;82.40;;;;;;5069924;28;20227;-71
2022/03/22 12:59:36;;;;;;;8.77;4.82;;;19.60;83.10;;;;;;5078595;28;20205;-73
2022/03/22 13:02:06;;;;;;;10.07;4.53;;;19.60;82.80;;;;;;5090818;28;20233;-75
2022/03/22 13:04:36;;;;;;;9.35;4.85;;;19.80;81.60;;;;;;5089840;28;20628;-71
2022/03/22 13:07:05;;;;;;;10.50;4.53;;;19.80;80.80;;;;;;5091208;28;20229;-74
2022/03/22 13:12:19;;;;;;;9.23;4.70;;;19.70;80.10;;;;;;5090774;28;20208;-73
2022/03/22 13:17:32;;;;;;;13.65;5.70;;;19.70;81.90;;;;;;5093346;28;20226;-72
2022/03/22 13:19:59;;;;;;;7.88;3.90;;;19.70;81.10;;;;;;5093519;28;20207;-75
2022/03/22 13:22:27;;;;;;;7.82;4.00;;;19.70;80.80;;;;;;5093962;28;20710;-78
2022/03/22 13:25:09;;;;;;;8.57;4.28;;;19.80;80.60;;;;;;5080796;28;20236;-74
2022/03/22 13:27:36;;;;;;;7.88;4.03;;;19.70;81.00;;;;;;5073338;28;20222;-73
2022/03/22 13:30:17;;;;;;;9.35;4.40;;;19.70;81.60;;;;;;5090938;28;20280;-72
2022/03/22 13:32:44;;;;;;;7.97;3.93;;;19.60;80.50;;;;;;5080627;28;20271;-73
2022/03/22 13:35:12;;;;;;;8.18;4.10;;;19.50;80.20;;;;;;5093145;28;20653;-72